createdAt,value
2022-09-15T00:01:13.769Z,98195.09
2022-09-15T00:03:42.554Z,98188.44
2022-09-15T00:06:12.323Z,98195.47
2022-09-15T00:08:40.967Z,98195.06
2022-09-15T00:11:11.221Z,98199.00
2022-09-15T00:13:40.998Z,98199.78
2022-09-15T00:16:13.523Z,98202.94
2022-09-15T00:18:44.148Z,98194.75
2022-09-15T00:21:17.045Z,98201.09
2022-09-15T00:23:45.514Z,98199.56
2022-09-15T00:26:15.861Z,98200.78
2022-09-15T00:28:44.495Z,98208.63
2022-09-15T00:31:14.752Z,98207.84
2022-09-15T00:33:43.583Z,98214.53
2022-09-15T00:36:15.113Z,98226.63
2022-09-15T00:38:43.640Z,98235.28
2022-09-15T00:41:13.996Z,98234.50
2022-09-15T00:43:48.693Z,98241.91
2022-09-15T00:46:18.548Z,98239.19
2022-09-15T00:48:50.069Z,98241.13
2022-09-15T00:51:23.895Z,98245.44
2022-09-15T00:53:53.717Z,98246.59
2022-09-15T00:56:23.033Z,98241.50
2022-09-15T00:58:56.439Z,98249.34
2022-09-15T01:01:27.172Z,98242.28
2022-09-15T01:03:56.552Z,98243.47
2022-09-15T01:06:31.801Z,98244.63
2022-09-15T01:09:05.185Z,98242.25
2022-09-15T01:11:33.693Z,98249.31
2022-09-15T01:14:02.012Z,98245.38
2022-09-15T01:16:45.100Z,98236.41
2022-09-15T01:19:37.310Z,98238.34
2022-09-15T01:22:18.452Z,98235.19
2022-09-15T01:25:03.774Z,98222.28
2022-09-15T01:28:25.431Z,98224.22
2022-09-15T01:30:59.701Z,98212.06
2022-09-15T01:33:35.619Z,98208.13
2022-09-15T01:36:12.659Z,98214.38
2022-09-15T01:38:50.587Z,98213.19
2022-09-15T01:41:25.376Z,98219.03
2022-09-15T01:43:57.350Z,98217.81
2022-09-15T01:46:28.978Z,98209.19
2022-09-15T01:49:00.599Z,98221.69
2022-09-15T01:51:29.616Z,98206.75
2022-09-15T01:54:00.920Z,98196.53
2022-09-15T01:56:28.877Z,98199.63
2022-09-15T01:58:56.838Z,98201.16
2022-09-15T02:01:32.418Z,98206.19
2022-09-15T02:04:06.188Z,98196.03
2022-09-15T02:06:40.773Z,98189.75
2022-09-15T02:09:14.568Z,98187.34
2022-09-15T02:11:52.296Z,98179.09
2022-09-15T02:14:32.416Z,98178.31
2022-09-15T02:17:03.038Z,98191.25
2022-09-15T02:19:34.298Z,98190.09
2022-09-15T02:22:10.634Z,98188.16
2022-09-15T02:24:43.285Z,98184.59
2022-09-15T02:27:18.575Z,98183.03
2022-09-15T02:29:50.133Z,98170.50
2022-09-15T02:32:23.289Z,98176.75
2022-09-15T02:34:53.308Z,98169.69
2022-09-15T02:37:24.345Z,98157.16
2022-09-15T02:39:57.641Z,98160.28
2022-09-15T02:42:26.491Z,98159.13
2022-09-15T02:44:54.814Z,98147.44
2022-09-15T02:47:25.051Z,98143.91
2022-09-15T02:49:54.005Z,98136.13
2022-09-15T02:52:22.330Z,98149.88
2022-09-15T02:54:50.567Z,98132.28
2022-09-15T02:57:18.821Z,98138.97
2022-09-15T03:00:03.940Z,98134.72
2022-09-15T03:02:33.056Z,98128.81
2022-09-15T03:05:00.968Z,98122.94
2022-09-15T03:07:30.153Z,98120.97
2022-09-15T03:09:58.367Z,98131.13
2022-09-15T03:12:27.066Z,98114.28
2022-09-15T03:14:55.156Z,98113.47
2022-09-15T03:17:23.253Z,98116.22
2022-09-15T03:19:53.258Z,98107.22
2022-09-15T03:22:21.481Z,98102.50
2022-09-15T03:24:49.380Z,98113.84
2022-09-15T03:27:17.818Z,98111.88
2022-09-15T03:29:46.000Z,98104.13
2022-09-15T03:32:14.154Z,98115.47
2022-09-15T03:34:42.119Z,98113.13
2022-09-15T03:37:11.636Z,98093.13
2022-09-15T03:39:39.506Z,98097.41
2022-09-15T03:42:07.690Z,98086.88
2022-09-15T03:44:35.892Z,98082.56
2022-09-15T03:47:03.835Z,98072.00
2022-09-15T03:49:31.713Z,98074.31
2022-09-15T03:52:00.035Z,98070.38
2022-09-15T03:54:29.665Z,98063.69
2022-09-15T03:56:57.659Z,98068.34
2022-09-15T03:59:25.750Z,98060.94
2022-09-15T04:01:53.927Z,98048.75
2022-09-15T04:04:21.942Z,98060.50
2022-09-15T04:06:49.924Z,98056.22
2022-09-15T04:09:20.248Z,98051.91
2022-09-15T04:11:49.816Z,98057.41
2022-09-15T04:14:17.753Z,98049.63
2022-09-15T04:16:45.825Z,98037.06
2022-09-15T04:19:14.092Z,98041.38
2022-09-15T04:21:42.131Z,98027.66
2022-09-15T04:24:10.121Z,98021.00
2022-09-15T04:26:38.724Z,98024.88
2022-09-15T04:29:14.192Z,98023.72
2022-09-15T04:31:42.372Z,98033.59
2022-09-15T04:34:10.445Z,98035.19
2022-09-15T04:36:38.433Z,98027.34
2022-09-15T04:39:07.200Z,98037.88
2022-09-15T04:41:35.362Z,98032.81
2022-09-15T04:44:04.442Z,98034.44
2022-09-15T04:46:33.852Z,98040.69
2022-09-15T04:49:01.890Z,98041.81
2022-09-15T04:51:29.861Z,98049.97
2022-09-15T04:53:58.701Z,98048.72
2022-09-15T04:56:27.947Z,98049.00
2022-09-15T04:59:03.511Z,98050.06
2022-09-15T05:01:35.321Z,98056.22
2022-09-15T05:04:05.041Z,98060.50
2022-09-15T05:06:34.850Z,98061.97
2022-09-15T05:09:09.048Z,98064.63
2022-09-15T05:11:37.920Z,98061.78
2022-09-15T05:14:05.887Z,98067.97
2022-09-15T05:16:35.323Z,98069.84
2022-09-15T05:19:04.683Z,98068.47
2022-09-15T05:21:33.578Z,98072.88
2022-09-15T05:24:01.619Z,98056.88
2022-09-15T05:26:30.745Z,98067.97
2022-09-15T05:28:58.855Z,98054.69
2022-09-15T05:31:30.660Z,98061.66
2022-09-15T05:34:02.164Z,98060.84
2022-09-15T05:36:30.743Z,98062.75
2022-09-15T05:38:59.392Z,98055.25
2022-09-15T05:41:28.866Z,98061.22
2022-09-15T05:43:58.371Z,98070.31
2022-09-15T05:46:27.697Z,98073.88
2022-09-15T05:48:57.698Z,98062.50
2022-09-15T05:51:27.699Z,98060.59
2022-09-15T05:53:55.688Z,98064.06
2022-09-15T05:56:23.782Z,98074.44
2022-09-15T05:58:52.211Z,98093.81
2022-09-15T06:01:21.659Z,98088.03
2022-09-15T06:03:49.751Z,98089.22
2022-09-15T06:06:18.364Z,98093.34
2022-09-15T06:08:55.447Z,98088.53
2022-09-15T06:11:28.312Z,98082.78
2022-09-15T06:13:56.851Z,98094.00
2022-09-15T06:16:26.684Z,98085.97
2022-09-15T06:18:55.503Z,98087.75
2022-09-15T06:21:24.594Z,98094.72
2022-09-15T06:23:55.898Z,98098.91
2022-09-15T06:26:25.054Z,98088.31
2022-09-15T06:28:55.316Z,98091.84
2022-09-15T06:31:24.463Z,98110.09
2022-09-15T06:33:55.877Z,98113.63
2022-09-15T06:36:25.992Z,98120.03
2022-09-15T06:38:56.058Z,98113.38
2022-09-15T06:41:24.273Z,98131.28
2022-09-15T06:43:53.201Z,98110.13
2022-09-15T06:46:23.705Z,98126.38
2022-09-15T06:48:53.465Z,98150.69
2022-09-15T06:51:24.130Z,98159.25
2022-09-15T06:53:54.185Z,98170.47
2022-09-15T06:56:24.895Z,98173.78
2022-09-15T06:58:53.122Z,98169.97
2022-09-15T07:01:23.379Z,98181.69
2022-09-15T07:03:51.989Z,98183.44
2022-09-15T07:06:20.368Z,98195.03
2022-09-15T07:08:49.672Z,98191.38
2022-09-15T07:11:18.599Z,98186.09
2022-09-15T07:13:49.677Z,98197.88
2022-09-15T07:16:20.171Z,98206.19
2022-09-15T07:18:49.725Z,98192.84
2022-09-15T07:21:21.654Z,98196.16
2022-09-15T07:23:50.377Z,98209.72
2022-09-15T07:26:20.447Z,98194.34
2022-09-15T07:28:51.522Z,98177.63
2022-09-15T07:31:21.812Z,98202.59
2022-09-15T07:33:50.458Z,98205.59
2022-09-15T07:36:18.945Z,98208.94
2022-09-15T07:38:48.890Z,98215.59
2022-09-15T07:41:21.264Z,98221.50
2022-09-15T07:43:52.602Z,98224.03
2022-09-15T07:46:22.009Z,98209.78
2022-09-15T07:48:51.857Z,98213.78
2022-09-15T07:51:20.894Z,98219.22
2022-09-15T07:53:50.137Z,98229.03
2022-09-15T07:56:19.114Z,98229.38
2022-09-15T07:58:47.376Z,98235.81
2022-09-15T08:01:18.172Z,98237.03
2022-09-15T08:03:50.666Z,98238.31
2022-09-15T08:06:20.084Z,98241.19
2022-09-15T08:08:49.247Z,98243.97
2022-09-15T08:11:19.509Z,98253.03
2022-09-15T08:13:48.498Z,98257.31
2022-09-15T08:16:19.830Z,98248.00
2022-09-15T08:18:48.836Z,98251.84
2022-09-15T08:21:20.188Z,98253.44
2022-09-15T08:23:52.011Z,98254.25
2022-09-15T08:26:20.576Z,98263.47
2022-09-15T08:28:48.888Z,98266.88
2022-09-15T08:31:18.943Z,98267.59
2022-09-15T08:33:50.294Z,98257.38
2022-09-15T08:36:18.717Z,98264.47
2022-09-15T08:38:47.745Z,98263.50
2022-09-15T08:41:20.097Z,98278.50
2022-09-15T08:43:54.877Z,98274.13
2022-09-15T08:46:29.011Z,98262.88
2022-09-15T08:49:05.524Z,98270.22
2022-09-15T08:51:40.741Z,98281.00
2022-09-15T08:54:16.063Z,98283.78
2022-09-15T08:56:44.761Z,98277.03
2022-09-15T08:59:16.015Z,98278.69
2022-09-15T09:02:04.067Z,98276.44
2022-09-15T09:04:43.626Z,98278.59
2022-09-15T09:07:25.279Z,98278.59
2022-09-15T09:09:58.048Z,98269.38
2022-09-15T09:12:41.085Z,98274.56
2022-09-15T09:15:22.081Z,98261.28
2022-09-15T09:18:11.041Z,98277.31
2022-09-15T09:20:50.128Z,98263.09
2022-09-15T09:23:26.287Z,98282.69
2022-09-15T09:25:56.080Z,98272.69
2022-09-15T09:28:31.763Z,98286.75
2022-09-15T09:31:04.206Z,98288.19
2022-09-15T09:33:47.522Z,98285.28
2022-09-15T09:36:16.109Z,98286.81
2022-09-15T09:38:46.573Z,98284.59
2022-09-15T09:41:17.912Z,98296.97
2022-09-15T09:43:48.629Z,98282.09
2022-09-15T09:46:19.251Z,98278.78
2022-09-15T09:48:53.643Z,98280.91
2022-09-15T09:51:33.890Z,98282.66
2022-09-15T09:54:07.829Z,98294.34
2022-09-15T09:56:35.747Z,98289.31
2022-09-15T09:59:04.036Z,98294.94
2022-09-15T10:01:32.172Z,98299.03
2022-09-15T10:04:19.126Z,98297.47
2022-09-15T10:06:47.651Z,98292.59
2022-09-15T10:09:18.313Z,98291.13
2022-09-15T10:11:48.111Z,98303.06
2022-09-15T10:14:22.883Z,98286.00
2022-09-15T10:16:59.641Z,98302.09
2022-09-15T10:19:30.700Z,98293.50
2022-09-15T10:21:59.480Z,98285.38
2022-09-15T10:24:36.769Z,98294.78
2022-09-15T10:27:20.280Z,98306.09
2022-09-15T10:29:48.704Z,98298.28
2022-09-15T10:32:28.875Z,98297.63
2022-09-15T10:35:02.580Z,98314.41
2022-09-15T10:37:36.107Z,98279.72
2022-09-15T10:40:24.037Z,98298.50
2022-09-15T10:42:53.900Z,98286.91
2022-09-15T10:45:28.127Z,98285.34
2022-09-15T10:48:15.556Z,98270.97
2022-09-15T10:50:55.193Z,98273.88
2022-09-15T10:53:39.816Z,98279.53
2022-09-15T10:56:20.365Z,98296.22
2022-09-15T10:59:03.496Z,98261.66
2022-09-15T11:01:45.554Z,98281.38
2022-09-15T11:04:42.247Z,98274.72
2022-09-15T11:07:18.504Z,98266.69
2022-09-15T11:09:52.227Z,98275.66
2022-09-15T11:12:33.129Z,98269.59
2022-09-15T11:15:18.998Z,98268.38
2022-09-15T11:18:01.260Z,98246.50
2022-09-15T11:20:57.531Z,98252.66
2022-09-15T11:23:33.098Z,98256.75
2022-09-15T11:26:06.469Z,98239.09
2022-09-15T11:28:40.994Z,98242.59
2022-09-15T11:31:15.677Z,98242.81
2022-09-15T11:33:49.923Z,98240.25
2022-09-15T11:36:21.612Z,98231.63
2022-09-15T11:38:57.704Z,98218.03
2022-09-15T11:41:34.488Z,98224.66
2022-09-15T11:44:22.385Z,98214.00
2022-09-15T11:47:01.666Z,98212.72
2022-09-15T11:49:35.674Z,98220.41
2022-09-15T11:52:13.819Z,98207.97
2022-09-15T11:54:47.843Z,98198.69
2022-09-15T11:57:19.715Z,98195.41
2022-09-15T11:59:53.234Z,98209.63
2022-09-15T12:02:27.252Z,98201.78
2022-09-15T12:05:07.506Z,98206.56
2022-09-15T12:07:42.528Z,98203.22
2022-09-15T12:10:19.038Z,98204.72
2022-09-15T12:12:48.387Z,98205.16
2022-09-15T12:15:18.557Z,98202.31
2022-09-15T12:17:53.533Z,98214.31
2022-09-15T12:20:26.400Z,98200.59
2022-09-15T12:23:01.683Z,98197.50
2022-09-15T12:25:39.571Z,98183.47
2022-09-15T12:28:42.581Z,98187.06
2022-09-15T12:31:25.666Z,98187.59
2022-09-15T12:33:58.976Z,98188.41
2022-09-15T12:36:42.743Z,98189.84
2022-09-15T12:39:30.004Z,98190.19
2022-09-15T12:42:08.620Z,98185.72
2022-09-15T12:44:38.569Z,98191.09
2022-09-15T12:47:18.646Z,98200.81
2022-09-15T12:49:48.949Z,98210.81
2022-09-15T12:52:18.527Z,98201.16
2022-09-15T12:54:53.933Z,98207.16
2022-09-15T12:57:27.626Z,98203.59
2022-09-15T13:00:18.079Z,98198.44
2022-09-15T13:02:48.003Z,98190.84
2022-09-15T13:05:52.297Z,98197.59
2022-09-15T13:08:48.305Z,98182.19
2022-09-15T13:11:19.317Z,98176.56
2022-09-15T13:13:52.242Z,98165.94
2022-09-15T13:16:28.287Z,98171.50
2022-09-15T13:19:07.373Z,98162.91
2022-09-15T13:21:38.762Z,98171.31
2022-09-15T13:24:14.270Z,98162.31
2022-09-15T13:26:45.296Z,98167.94
2022-09-15T13:29:17.859Z,98166.13
2022-09-15T13:31:53.542Z,98162.28
2022-09-15T13:35:04.815Z,98167.44
2022-09-15T13:38:15.067Z,98164.22
2022-09-15T13:41:06.674Z,98159.81
2022-09-15T13:44:03.045Z,98172.25
2022-09-15T13:46:45.567Z,98178.13
2022-09-15T13:49:39.814Z,98172.50
2022-09-15T13:52:23.042Z,98167.91
2022-09-15T13:55:11.293Z,98171.91
2022-09-15T14:00:33.709Z,98162.63
2022-09-15T14:03:06.867Z,98149.25
2022-09-15T14:05:36.940Z,98156.94
2022-09-15T14:08:09.065Z,98149.91
2022-09-15T14:10:46.091Z,98163.59
2022-09-15T14:13:18.809Z,98157.06
2022-09-15T14:15:57.973Z,98126.78
2022-09-15T14:18:27.361Z,98145.44
2022-09-15T14:21:03.453Z,98144.16
2022-09-15T14:23:32.769Z,98135.50
2022-09-15T14:26:02.407Z,98137.97
2022-09-15T14:28:33.318Z,98132.13
2022-09-15T14:31:02.965Z,98128.84
2022-09-15T14:33:38.184Z,98126.69
2022-09-15T14:36:14.656Z,98122.22
2022-09-15T14:38:42.771Z,98116.94
2022-09-15T14:41:20.500Z,98115.56
2022-09-15T14:43:48.648Z,98108.00
2022-09-15T14:46:20.772Z,98109.19
2022-09-15T14:48:50.227Z,98099.31
2022-09-15T14:51:22.787Z,98095.13
2022-09-15T14:53:54.501Z,98089.28
2022-09-15T14:56:26.143Z,98088.84
2022-09-15T14:58:57.392Z,98093.47
2022-09-15T15:01:33.531Z,98087.28
2022-09-15T15:04:12.065Z,98079.69
2022-09-15T15:06:50.620Z,98082.03
2022-09-15T15:09:23.771Z,98077.53
2022-09-15T15:11:54.936Z,98081.88
2022-09-15T15:14:26.030Z,98075.56
2022-09-15T15:16:59.648Z,98074.03
2022-09-15T15:19:38.323Z,98058.75
2022-09-15T15:22:17.799Z,98066.00
2022-09-15T15:24:48.380Z,98066.94
2022-09-15T15:27:43.355Z,98066.63
2022-09-15T15:30:34.329Z,98065.34
2022-09-15T15:33:04.415Z,98066.44
2022-09-15T15:35:35.797Z,98063.19
2022-09-15T15:38:06.871Z,98050.50
2022-09-15T15:40:37.602Z,98044.63
2022-09-15T15:43:08.020Z,98046.44
2022-09-15T15:45:48.398Z,98041.44
2022-09-15T15:48:16.455Z,98038.16
2022-09-15T15:50:45.761Z,98035.19
2022-09-15T15:53:17.687Z,98040.06
2022-09-15T15:55:45.982Z,98037.78
2022-09-15T15:58:15.222Z,98041.88
2022-09-15T16:00:46.256Z,98038.88
2022-09-15T16:03:16.152Z,98034.63
2022-09-15T16:05:47.564Z,98043.88
2022-09-15T16:08:24.258Z,98036.50
2022-09-15T16:10:52.928Z,98026.38
2022-09-15T16:13:23.324Z,98011.78
2022-09-15T16:15:51.603Z,98008.72
2022-09-15T16:18:19.696Z,98011.16
2022-09-15T16:20:49.037Z,98014.50
2022-09-15T16:23:18.988Z,98015.06
2022-09-15T16:25:50.148Z,98013.53
2022-09-15T16:28:18.469Z,98013.50
2022-09-15T16:30:46.743Z,98009.59
2022-09-15T16:33:15.811Z,98024.72
2022-09-15T16:35:51.319Z,98018.84
2022-09-15T16:38:20.319Z,98021.66
2022-09-15T16:40:48.444Z,98015.72
2022-09-15T16:43:18.224Z,98016.75
2022-09-15T16:45:46.812Z,98027.06
2022-09-15T16:48:15.051Z,98021.59
2022-09-15T16:51:01.672Z,98032.53
2022-09-15T16:53:32.983Z,98034.38
2022-09-15T16:56:01.042Z,98031.47
2022-09-15T16:58:29.103Z,98034.41
2022-09-15T17:00:57.949Z,98041.63
2022-09-15T17:03:27.272Z,98035.06
2022-09-15T17:05:57.558Z,98038.75
2022-09-15T17:08:29.425Z,98043.56
2022-09-15T17:11:00.656Z,98043.66
2022-09-15T17:13:30.749Z,98034.19
2022-09-15T17:15:59.654Z,98035.38
2022-09-15T17:18:28.873Z,98023.22
2022-09-15T17:20:57.104Z,98031.16
2022-09-15T17:23:27.741Z,98033.66
2022-09-15T17:25:58.457Z,98023.97
2022-09-15T17:28:31.201Z,98029.19
2022-09-15T17:31:00.803Z,98019.09
2022-09-15T17:33:29.887Z,98023.47
2022-09-15T17:35:58.274Z,98024.75
2022-09-15T17:38:26.738Z,98028.69
2022-09-15T17:40:56.728Z,98023.25
2022-09-15T17:43:28.202Z,98017.84
2022-09-15T17:45:58.244Z,98006.47
2022-09-15T17:48:26.489Z,98000.19
2022-09-15T17:50:54.586Z,98006.91
2022-09-15T17:53:26.737Z,98010.06
2022-09-15T17:55:56.529Z,97992.09
2022-09-15T17:58:26.658Z,97994.88
2022-09-15T18:00:56.165Z,97987.47
2022-09-15T18:03:27.918Z,97977.31
2022-09-15T18:05:57.017Z,97969.53
2022-09-15T18:08:25.370Z,97972.78
2022-09-15T18:10:53.835Z,97978.44
2022-09-15T18:13:23.626Z,97985.28
2022-09-15T18:15:51.983Z,97991.81
2022-09-15T18:18:23.936Z,97994.81
2022-09-15T18:20:53.346Z,97973.72
2022-09-15T18:23:23.598Z,97975.41
2022-09-15T18:25:51.971Z,97973.91
2022-09-15T18:28:20.733Z,97975.53
2022-09-15T18:30:50.531Z,97980.63
2022-09-15T18:33:20.350Z,97968.00
2022-09-15T18:35:51.128Z,97956.50
2022-09-15T18:38:19.345Z,97962.72
2022-09-15T18:40:49.364Z,97968.94
2022-09-15T18:43:17.660Z,97974.78
2022-09-15T18:45:45.664Z,97962.25
2022-09-15T18:48:14.343Z,97967.78
2022-09-15T18:50:42.949Z,97969.78
2022-09-15T18:53:13.233Z,97973.00
2022-09-15T18:55:42.711Z,97963.28
2022-09-15T18:58:11.154Z,97975.13
2022-09-15T19:00:39.247Z,97953.53
2022-09-15T19:03:09.485Z,97947.31
2022-09-15T19:05:37.678Z,97939.56
2022-09-15T19:08:08.293Z,97940.72
2022-09-15T19:10:39.449Z,97936.44
2022-09-15T19:13:07.440Z,97944.22
2022-09-15T19:15:35.641Z,97947.31
2022-09-15T19:18:03.607Z,97939.84
2022-09-15T19:20:31.577Z,97935.13
2022-09-15T19:22:59.594Z,97934.06
2022-09-15T19:25:27.638Z,97940.50
2022-09-15T19:27:57.130Z,97946.53
2022-09-15T19:30:25.479Z,97945.44
2022-09-15T19:32:53.950Z,97951.00
2022-09-15T19:35:21.957Z,97948.28
2022-09-15T19:37:50.239Z,97940.53
2022-09-15T19:40:18.324Z,97939.41
2022-09-15T19:42:46.914Z,97942.63
2022-09-15T19:45:16.330Z,97941.19
2022-09-15T19:47:44.321Z,97943.69
2022-09-15T19:50:13.018Z,97943.06
2022-09-15T19:52:41.191Z,97942.00
2022-09-15T19:55:10.305Z,97940.97
2022-09-15T19:57:40.769Z,97954.78
2022-09-15T20:00:10.946Z,97949.75
2022-09-15T20:02:40.498Z,97948.16
2022-09-15T20:05:09.909Z,97955.31
2022-09-15T20:07:38.117Z,97960.16
2022-09-15T20:10:07.192Z,97964.50
2022-09-15T20:12:35.225Z,97964.81
2022-09-15T20:15:03.237Z,97967.03
2022-09-15T20:17:31.294Z,97958.34
2022-09-15T20:20:00.829Z,97961.47
2022-09-15T20:22:28.881Z,97960.19
2022-09-15T20:24:57.389Z,97966.31
2022-09-15T20:27:25.468Z,97974.44
2022-09-15T20:29:53.412Z,97979.94
2022-09-15T20:32:27.484Z,97981.13
2022-09-15T20:34:55.514Z,97985.09
2022-09-15T20:37:24.819Z,97974.88
2022-09-15T20:39:52.846Z,97980.25
2022-09-15T20:42:20.794Z,97975.81
2022-09-15T20:44:48.738Z,97961.13
2022-09-15T20:47:16.918Z,97971.25
2022-09-15T20:49:44.951Z,97979.44
2022-09-15T20:52:12.948Z,97995.09
2022-09-15T20:54:42.311Z,97990.41
2022-09-15T20:57:10.443Z,97988.03
2022-09-15T20:59:38.422Z,98003.78
2022-09-15T21:02:07.593Z,97991.41
2022-09-15T21:04:35.594Z,98004.94
2022-09-15T21:07:03.597Z,98003.84
2022-09-15T21:09:31.935Z,98006.31
2022-09-15T21:12:01.362Z,97998.19
2022-09-15T21:14:29.495Z,98003.34
2022-09-15T21:16:57.533Z,98003.03
2022-09-15T21:19:25.514Z,98016.38
2022-09-15T21:21:54.983Z,98013.63
2022-09-15T21:24:23.076Z,98021.81
2022-09-15T21:27:08.502Z,98021.81
2022-09-15T21:29:37.907Z,98019.47
2022-09-15T21:32:06.087Z,98013.91
2022-09-15T21:34:34.221Z,98018.22
2022-09-15T21:37:02.277Z,98019.84
2022-09-15T21:39:30.383Z,98029.66
2022-09-15T21:41:58.463Z,98017.91
2022-09-15T21:44:26.633Z,98025.78
2022-09-15T21:46:56.101Z,98029.34
2022-09-15T21:49:24.120Z,98036.47
2022-09-15T21:51:52.132Z,98036.19
2022-09-15T21:54:20.160Z,98038.09
2022-09-15T21:56:48.170Z,98050.34
2022-09-15T21:59:18.274Z,98034.69
2022-09-15T22:01:46.389Z,98033.16
2022-09-15T22:04:16.050Z,98027.28
2022-09-15T22:06:44.946Z,98018.69
2022-09-15T22:09:15.834Z,98012.88
2022-09-15T22:11:43.812Z,98013.72
2022-09-15T22:14:14.297Z,98011.88
2022-09-15T22:16:43.598Z,98016.56
2022-09-15T22:19:13.453Z,98011.56
2022-09-15T22:21:42.896Z,98026.06
2022-09-15T22:24:12.827Z,98034.75
2022-09-15T22:26:42.139Z,98046.97
2022-09-15T22:29:10.357Z,98032.13
2022-09-15T22:31:38.894Z,98022.72
2022-09-15T22:34:06.967Z,98016.91
2022-09-15T22:36:35.167Z,98022.84
2022-09-15T22:39:05.677Z,98026.00
2022-09-15T22:41:36.726Z,98033.50
2022-09-15T22:44:05.492Z,98022.56
2022-09-15T22:46:33.868Z,98019.06
2022-09-15T22:49:02.194Z,98022.63
2022-09-15T22:51:30.759Z,98035.16
2022-09-15T22:53:59.344Z,98035.59
2022-09-15T22:56:28.720Z,98042.28
2022-09-15T22:58:57.487Z,98035.59
2022-09-15T23:01:28.096Z,98040.72
2022-09-15T23:03:57.390Z,98038.41
2022-09-15T23:06:27.281Z,98034.88
2022-09-15T23:08:56.926Z,98041.94
2022-09-15T23:11:25.884Z,98050.56
2022-09-15T23:13:56.422Z,98055.69
2022-09-15T23:16:25.742Z,98058.03
2022-09-15T23:18:54.563Z,98054.13
2022-09-15T23:21:22.761Z,98065.47
2022-09-15T23:23:50.745Z,98069.34
2022-09-15T23:26:20.431Z,98068.91
2022-09-15T23:28:49.243Z,98065.38
2022-09-15T23:31:19.505Z,98061.44
2022-09-15T23:33:47.913Z,98060.25
2022-09-15T23:36:19.551Z,98068.13
2022-09-15T23:38:49.274Z,98079.47
2022-09-15T23:41:18.657Z,98084.97
2022-09-15T23:43:47.150Z,98081.09
2022-09-15T23:46:15.455Z,98061.13
2022-09-15T23:48:45.153Z,98077.16
2022-09-15T23:51:13.197Z,98077.06
2022-09-15T23:53:41.588Z,98069.53
2022-09-15T23:56:09.838Z,98065.19
2022-09-15T23:58:37.887Z,98071.03
